sensor_id;sensor_type;location;lat;lon;timestamp;pressure;altitude;pressure_sealevel;temperature;humidity
10460;BME280;54412;51.206;6.888;2023-11-21T00:00:19;100286.19;;;10.66;100.00
10460;BME280;54412;51.206;6.888;2023-11-21T00:02:45;100291.22;;;10.55;100.00
10460;BME280;54412;51.206;6.888;2023-11-21T00:05:12;100297.44;;;10.54;100.00
10460;BME280;54412;51.206;6.888;2023-11-21T00:07:40;100294.53;;;10.59;100.00
10460;BME280;54412;51.206;6.888;2023-11-21T00:10:07;100303.13;;;10.46;100.00
10460;BME280;54412;51.206;6.888;2023-11-21T00:12:34;100291.72;;;10.62;100.00
10460;BME280;54412;51.206;6.888;2023-11-21T00:15:00;100300.91;;;10.39;100.00
10460;BME280;54412;51.206;6.888;2023-11-21T00:17:27;100293.22;;;10.34;100.00
10460;BME280;54412;51.206;6.888;2023-11-21T00:19:53;100302.59;;;10.40;100.00
10460;BME280;54412;51.206;6.888;2023-11-21T00:22:19;100311.44;;;10.39;100.00
10460;BME280;54412;51.206;6.888;2023-11-21T00:24:46;100317.28;;;10.28;100.00
10460;BME280;54412;51.206;6.888;2023-11-21T00:27:12;100319.94;;;10.28;100.00
10460;BME280;54412;51.206;6.888;2023-11-21T00:29:38;100319.75;;;10.31;100.00
10460;BME280;54412;51.206;6.888;2023-11-21T00:32:07;100320.44;;;10.35;100.00
10460;BME280;54412;51.206;6.888;2023-11-21T00:34:33;100319.25;;;10.25;100.00
10460;BME280;54412;51.206;6.888;2023-11-21T00:36:59;100321.63;;;10.29;100.00
10460;BME280;54412;51.206;6.888;2023-11-21T00:39:24;100326.78;;;10.15;100.00
10460;BME280;54412;51.206;6.888;2023-11-21T00:41:52;100318.22;;;10.27;100.00
10460;BME280;54412;51.206;6.888;2023-11-21T00:44:17;100326.06;;;10.29;100.00
10460;BME280;54412;51.206;6.888;2023-11-21T00:46:43;100321.31;;;10.35;100.00
10460;BME280;54412;51.206;6.888;2023-11-21T00:49:08;100319.34;;;10.54;100.00
10460;BME280;54412;51.206;6.888;2023-11-21T00:51:34;100320.53;;;10.49;100.00
10460;BME280;54412;51.206;6.888;2023-11-21T00:54:00;100320.94;;;10.26;100.00
10460;BME280;54412;51.206;6.888;2023-11-21T00:56:26;100330.38;;;10.30;100.00
10460;BME280;54412;51.206;6.888;2023-11-21T00:58:53;100331.06;;;10.33;100.00
10460;BME280;54412;51.206;6.888;2023-11-21T01:01:20;100332.69;;;10.36;100.00
10460;BME280;54412;51.206;6.888;2023-11-21T01:03:46;100333.31;;;10.41;100.00
10460;BME280;54412;51.206;6.888;2023-11-21T01:06:12;100338.72;;;10.38;100.00
10460;BME280;54412;51.206;6.888;2023-11-21T01:08:38;100335.25;;;10.37;100.00
10460;BME280;54412;51.206;6.888;2023-11-21T01:11:04;100332.63;;;10.37;100.00
10460;BME280;54412;51.206;6.888;2023-11-21T01:13:33;100336.34;;;10.33;100.00
10460;BME280;54412;51.206;6.888;2023-11-21T01:15:58;100335.25;;;10.53;100.00
10460;BME280;54412;51.206;6.888;2023-11-21T01:18:24;100336.94;;;10.38;100.00
10460;BME280;54412;51.206;6.888;2023-11-21T01:20:51;100338.03;;;10.34;100.00
10460;BME280;54412;51.206;6.888;2023-11-21T01:23:19;100345.94;;;10.34;100.00
10460;BME280;54412;51.206;6.888;2023-11-21T01:25:44;100345.25;;;10.31;100.00
10460;BME280;54412;51.206;6.888;2023-11-21T01:28:10;100342.56;;;10.32;100.00
10460;BME280;54412;51.206;6.888;2023-11-21T01:30:36;100343.06;;;10.39;100.00
10460;BME280;54412;51.206;6.888;2023-11-21T01:33:03;100347.63;;;10.20;100.00
10460;BME280;54412;51.206;6.888;2023-11-21T01:35:29;100358.31;;;10.17;100.00
10460;BME280;54412;51.206;6.888;2023-11-21T01:37:55;100349.03;;;10.10;100.00
10460;BME280;54412;51.206;6.888;2023-11-21T01:40:20;100357.16;;;10.05;100.00
10460;BME280;54412;51.206;6.888;2023-11-21T01:42:46;100358.31;;;10.17;100.00
10460;BME280;54412;51.206;6.888;2023-11-21T01:45:13;100360.09;;;10.16;100.00
10460;BME280;54412;51.206;6.888;2023-11-21T01:47:41;100363.59;;;10.17;100.00
10460;BME280;54412;51.206;6.888;2023-11-21T01:50:13;100361.28;;;10.11;100.00
10460;BME280;54412;51.206;6.888;2023-11-21T01:52:39;100358.09;;;10.21;100.00
10460;BME280;54412;51.206;6.888;2023-11-21T01:55:08;100366.63;;;10.09;100.00
10460;BME280;54412;51.206;6.888;2023-11-21T01:57:36;100355.53;;;10.20;100.00
10460;BME280;54412;51.206;6.888;2023-11-21T02:00:05;100352.53;;;10.10;100.00
10460;BME280;54412;51.206;6.888;2023-11-21T02:02:43;100365.63;;;10.12;100.00
10460;BME280;54412;51.206;6.888;2023-11-21T02:05:18;100364.19;;;10.05;100.00
10460;BME280;54412;51.206;6.888;2023-11-21T02:07:45;100360.00;;;10.01;100.00
10460;BME280;54412;51.206;6.888;2023-11-21T02:10:14;100369.88;;;10.14;100.00
10460;BME280;54412;51.206;6.888;2023-11-21T02:12:41;100362.25;;;10.08;100.00
10460;BME280;54412;51.206;6.888;2023-11-21T02:15:10;100369.78;;;9.99;100.00
10460;BME280;54412;51.206;6.888;2023-11-21T02:17:43;100370.25;;;10.07;100.00
10460;BME280;54412;51.206;6.888;2023-11-21T02:20:13;100374.13;;;10.17;100.00
10460;BME280;54412;51.206;6.888;2023-11-21T02:22:41;100381.78;;;10.04;100.00
10460;BME280;54412;51.206;6.888;2023-11-21T02:25:08;100380.00;;;10.05;100.00
10460;BME280;54412;51.206;6.888;2023-11-21T02:27:34;100388.59;;;10.08;100.00
10460;BME280;54412;51.206;6.888;2023-11-21T02:30:00;100391.19;;;10.10;100.00
10460;BME280;54412;51.206;6.888;2023-11-21T02:32:26;100391.31;;;10.07;100.00
10460;BME280;54412;51.206;6.888;2023-11-21T02:34:52;100392.66;;;9.98;100.00
10460;BME280;54412;51.206;6.888;2023-11-21T02:37:21;100392.75;;;10.14;100.00
10460;BME280;54412;51.206;6.888;2023-11-21T02:39:47;100386.97;;;10.06;100.00
10460;BME280;54412;51.206;6.888;2023-11-21T02:42:12;100392.13;;;10.09;100.00
10460;BME280;54412;51.206;6.888;2023-11-21T02:44:38;100394.81;;;10.07;100.00
10460;BME280;54412;51.206;6.888;2023-11-21T02:47:04;100394.22;;;10.19;100.00
10460;BME280;54412;51.206;6.888;2023-11-21T02:49:29;100396.25;;;10.14;100.00
10460;BME280;54412;51.206;6.888;2023-11-21T02:51:56;100396.28;;;10.13;100.00
10460;BME280;54412;51.206;6.888;2023-11-21T02:54:22;100402.34;;;10.15;100.00
10460;BME280;54412;51.206;6.888;2023-11-21T02:56:48;100400.22;;;10.04;100.00
10460;BME280;54412;51.206;6.888;2023-11-21T02:59:15;100402.03;;;10.21;100.00
10460;BME280;54412;51.206;6.888;2023-11-21T03:01:41;100403.72;;;10.22;100.00
10460;BME280;54412;51.206;6.888;2023-11-21T03:04:07;100406.84;;;10.13;100.00
10460;BME280;54412;51.206;6.888;2023-11-21T03:06:33;100416.06;;;10.21;100.00
10460;BME280;54412;51.206;6.888;2023-11-21T03:08:59;100411.38;;;10.11;100.00
10460;BME280;54412;51.206;6.888;2023-11-21T03:11:25;100407.00;;;10.10;100.00
10460;BME280;54412;51.206;6.888;2023-11-21T03:13:50;100415.03;;;10.07;100.00
10460;BME280;54412;51.206;6.888;2023-11-21T03:16:16;100411.88;;;10.17;100.00
10460;BME280;54412;51.206;6.888;2023-11-21T03:18:42;100412.66;;;10.19;100.00
10460;BME280;54412;51.206;6.888;2023-11-21T03:21:08;100409.09;;;10.20;100.00
10460;BME280;54412;51.206;6.888;2023-11-21T03:23:37;100408.63;;;10.12;100.00
10460;BME280;54412;51.206;6.888;2023-11-21T03:26:03;100414.00;;;10.11;100.00
10460;BME280;54412;51.206;6.888;2023-11-21T03:28:29;100414.81;;;10.11;100.00
10460;BME280;54412;51.206;6.888;2023-11-21T03:30:56;100410.84;;;10.37;100.00
10460;BME280;54412;51.206;6.888;2023-11-21T03:33:22;100419.78;;;10.17;100.00
10460;BME280;54412;51.206;6.888;2023-11-21T03:35:48;100427.13;;;10.28;100.00
10460;BME280;54412;51.206;6.888;2023-11-21T03:38:15;100427.28;;;10.08;100.00
10460;BME280;54412;51.206;6.888;2023-11-21T03:40:41;100421.38;;;10.03;100.00
10460;BME280;54412;51.206;6.888;2023-11-21T03:43:07;100433.28;;;10.11;100.00
10460;BME280;54412;51.206;6.888;2023-11-21T03:45:33;100431.13;;;10.19;100.00
10460;BME280;54412;51.206;6.888;2023-11-21T03:47:59;100439.31;;;10.13;100.00
10460;BME280;54412;51.206;6.888;2023-11-21T03:50:28;100441.09;;;10.30;100.00
10460;BME280;54412;51.206;6.888;2023-11-21T03:52:54;100448.16;;;10.12;100.00
10460;BME280;54412;51.206;6.888;2023-11-21T03:55:20;100452.50;;;10.13;100.00
10460;BME280;54412;51.206;6.888;2023-11-21T03:57:45;100464.72;;;10.31;100.00
10460;BME280;54412;51.206;6.888;2023-11-21T04:00:12;100457.13;;;10.25;100.00
10460;BME280;54412;51.206;6.888;2023-11-21T04:02:38;100458.28;;;10.37;100.00
10460;BME280;54412;51.206;6.888;2023-11-21T04:05:05;100461.41;;;10.28;100.00
10460;BME280;54412;51.206;6.888;2023-11-21T04:07:32;100465.34;;;10.36;100.00
10460;BME280;54412;51.206;6.888;2023-11-21T04:09:59;100464.34;;;10.39;100.00
10460;BME280;54412;51.206;6.888;2023-11-21T04:12:25;100459.56;;;10.30;100.00
10460;BME280;54412;51.206;6.888;2023-11-21T04:14:50;100461.41;;;10.28;100.00
10460;BME280;54412;51.206;6.888;2023-11-21T04:17:18;100466.84;;;10.25;100.00
10460;BME280;54412;51.206;6.888;2023-11-21T04:19:45;100470.72;;;10.18;100.00
10460;BME280;54412;51.206;6.888;2023-11-21T04:22:11;100465.47;;;10.18;100.00
10460;BME280;54412;51.206;6.888;2023-11-21T04:24:37;100464.75;;;10.14;100.00
10460;BME280;54412;51.206;6.888;2023-11-21T04:27:03;100461.09;;;10.17;100.00
10460;BME280;54412;51.206;6.888;2023-11-21T04:29:28;100473.03;;;10.24;100.00
10460;BME280;54412;51.206;6.888;2023-11-21T04:31:55;100468.22;;;10.15;100.00
10460;BME280;54412;51.206;6.888;2023-11-21T04:34:20;100468.72;;;10.23;100.00
10460;BME280;54412;51.206;6.888;2023-11-21T04:36:46;100467.06;;;10.20;100.00
10460;BME280;54412;51.206;6.888;2023-11-21T04:39:12;100471.97;;;10.11;100.00
10460;BME280;54412;51.206;6.888;2023-11-21T04:41:37;100479.16;;;10.07;100.00
10460;BME280;54412;51.206;6.888;2023-11-21T04:44:05;100471.09;;;10.10;100.00
10460;BME280;54412;51.206;6.888;2023-11-21T04:46:31;100475.13;;;10.34;100.00
10460;BME280;54412;51.206;6.888;2023-11-21T04:48:58;100472.34;;;10.37;100.00
10460;BME280;54412;51.206;6.888;2023-11-21T04:51:24;100480.78;;;10.10;100.00
10460;BME280;54412;51.206;6.888;2023-11-21T04:53:49;100485.25;;;10.08;100.00
10460;BME280;54412;51.206;6.888;2023-11-21T04:56:15;100487.63;;;9.95;100.00
10460;BME280;54412;51.206;6.888;2023-11-21T04:58:45;100487.44;;;10.00;100.00
10460;BME280;54412;51.206;6.888;2023-11-21T05:01:10;100490.69;;;10.05;100.00
10460;BME280;54412;51.206;6.888;2023-11-21T05:03:37;100497.41;;;9.93;100.00
10460;BME280;54412;51.206;6.888;2023-11-21T05:06:04;100489.38;;;9.96;100.00
10460;BME280;54412;51.206;6.888;2023-11-21T05:08:30;100506.66;;;10.02;100.00
10460;BME280;54412;51.206;6.888;2023-11-21T05:10:56;100510.44;;;9.96;100.00
10460;BME280;54412;51.206;6.888;2023-11-21T05:13:22;100509.75;;;9.93;100.00
10460;BME280;54412;51.206;6.888;2023-11-21T05:15:54;100502.81;;;9.90;100.00
10460;BME280;54412;51.206;6.888;2023-11-21T05:18:20;100508.41;;;10.01;100.00
10460;BME280;54412;51.206;6.888;2023-11-21T05:20:46;100505.38;;;9.92;100.00
10460;BME280;54412;51.206;6.888;2023-11-21T05:23:12;100512.22;;;9.96;100.00
10460;BME280;54412;51.206;6.888;2023-11-21T05:25:38;100524.69;;;10.11;100.00
10460;BME280;54412;51.206;6.888;2023-11-21T05:28:04;100522.75;;;9.96;100.00
10460;BME280;54412;51.206;6.888;2023-11-21T05:30:30;100529.59;;;10.00;100.00
10460;BME280;54412;51.206;6.888;2023-11-21T05:32:55;100525.47;;;9.94;100.00
10460;BME280;54412;51.206;6.888;2023-11-21T05:35:21;100530.13;;;9.89;100.00
10460;BME280;54412;51.206;6.888;2023-11-21T05:37:47;100532.75;;;9.89;100.00
10460;BME280;54412;51.206;6.888;2023-11-21T05:40:13;100534.44;;;9.90;100.00
10460;BME280;54412;51.206;6.888;2023-11-21T05:42:40;100528.94;;;9.95;100.00
10460;BME280;54412;51.206;6.888;2023-11-21T05:45:07;100538.72;;;9.93;100.00
10460;BME280;54412;51.206;6.888;2023-11-21T05:47:41;100530.75;;;9.94;100.00
10460;BME280;54412;51.206;6.888;2023-11-21T05:50:12;100544.38;;;10.02;100.00
10460;BME280;54412;51.206;6.888;2023-11-21T05:52:44;100546.78;;;10.07;100.00
10460;BME280;54412;51.206;6.888;2023-11-21T05:55:10;100549.19;;;9.94;100.00
10460;BME280;54412;51.206;6.888;2023-11-21T05:57:37;100553.50;;;9.95;100.00
10460;BME280;54412;51.206;6.888;2023-11-21T06:00:09;100560.50;;;9.96;100.00
10460;BME280;54412;51.206;6.888;2023-11-21T06:02:38;100559.19;;;10.05;100.00
10460;BME280;54412;51.206;6.888;2023-11-21T06:05:06;100562.59;;;10.07;100.00
10460;BME280;54412;51.206;6.888;2023-11-21T06:07:32;100569.19;;;9.98;100.00
10460;BME280;54412;51.206;6.888;2023-11-21T06:09:58;100575.69;;;10.08;100.00
10460;BME280;54412;51.206;6.888;2023-11-21T06:12:23;100575.69;;;10.08;100.00
10460;BME280;54412;51.206;6.888;2023-11-21T06:14:49;100587.53;;;10.18;100.00
10460;BME280;54412;51.206;6.888;2023-11-21T06:17:15;100581.75;;;10.29;100.00
10460;BME280;54412;51.206;6.888;2023-11-21T06:19:40;100591.81;;;10.21;100.00
10460;BME280;54412;51.206;6.888;2023-11-21T06:22:06;100589.34;;;10.35;100.00
10460;BME280;54412;51.206;6.888;2023-11-21T06:24:32;100596.91;;;10.24;100.00
10460;BME280;54412;51.206;6.888;2023-11-21T06:26:57;100599.88;;;10.18;100.00
10460;BME280;54412;51.206;6.888;2023-11-21T06:29:24;100594.59;;;10.35;100.00
10460;BME280;54412;51.206;6.888;2023-11-21T06:31:49;100593.91;;;10.31;100.00
10460;BME280;54412;51.206;6.888;2023-11-21T06:34:15;100599.25;;;10.30;100.00
10460;BME280;54412;51.206;6.888;2023-11-21T06:36:41;100611.75;;;10.26;100.00
10460;BME280;54412;51.206;6.888;2023-11-21T06:39:06;100614.66;;;10.20;100.00
10460;BME280;54412;51.206;6.888;2023-11-21T06:41:34;100620.38;;;10.11;100.00
10460;BME280;54412;51.206;6.888;2023-11-21T06:44:00;100618.53;;;10.13;100.00
10460;BME280;54412;51.206;6.888;2023-11-21T06:46:25;100623.41;;;10.02;100.00
10460;BME280;54412;51.206;6.888;2023-11-21T06:48:51;100631.53;;;10.16;100.00
10460;BME280;54412;51.206;6.888;2023-11-21T06:51:17;100629.94;;;10.14;100.00
10460;BME280;54412;51.206;6.888;2023-11-21T06:53:43;100629.91;;;9.95;100.00
10460;BME280;54412;51.206;6.888;2023-11-21T06:56:18;100631.63;;;9.96;100.00
10460;BME280;54412;51.206;6.888;2023-11-21T06:58:46;100625.28;;;10.00;100.00
10460;BME280;54412;51.206;6.888;2023-11-21T07:01:13;100639.47;;;9.98;100.00
10460;BME280;54412;51.206;6.888;2023-11-21T07:03:39;100647.75;;;10.09;100.00
10460;BME280;54412;51.206;6.888;2023-11-21T07:06:05;100648.88;;;10.03;100.00
10460;BME280;54412;51.206;6.888;2023-11-21T07:12:03;100661.09;;;10.04;100.00
10460;BME280;54412;51.206;6.888;2023-11-21T07:14:29;100664.47;;;10.26;100.00
10460;BME280;54412;51.206;6.888;2023-11-21T07:16:55;100667.69;;;10.50;100.00
10460;BME280;54412;51.206;6.888;2023-11-21T07:19:20;100670.53;;;10.45;100.00
10460;BME280;54412;51.206;6.888;2023-11-21T07:21:47;100679.28;;;10.10;100.00
10460;BME280;54412;51.206;6.888;2023-11-21T07:24:16;100675.28;;;10.20;100.00
10460;BME280;54412;51.206;6.888;2023-11-21T07:26:42;100696.53;;;10.17;100.00
10460;BME280;54412;51.206;6.888;2023-11-21T07:29:08;100691.72;;;10.07;100.00
10460;BME280;54412;51.206;6.888;2023-11-21T07:31:34;100687.41;;;10.24;100.00
10460;BME280;54412;51.206;6.888;2023-11-21T07:34:00;100691.59;;;10.28;100.00
10460;BME280;54412;51.206;6.888;2023-11-21T07:36:26;100695.03;;;10.30;100.00
10460;BME280;54412;51.206;6.888;2023-11-21T07:38:52;100689.94;;;10.26;100.00
10460;BME280;54412;51.206;6.888;2023-11-21T07:41:19;100679.84;;;10.35;100.00
10460;BME280;54412;51.206;6.888;2023-11-21T07:43:45;100678.25;;;10.31;100.00
10460;BME280;54412;51.206;6.888;2023-11-21T07:46:11;100692.91;;;10.20;100.00
10460;BME280;54412;51.206;6.888;2023-11-21T07:48:41;100690.13;;;10.23;100.00
10460;BME280;54412;51.206;6.888;2023-11-21T07:51:08;100683.63;;;10.30;100.00
10460;BME280;54412;51.206;6.888;2023-11-21T07:53:35;100687.03;;;10.32;100.00
10460;BME280;54412;51.206;6.888;2023-11-21T07:56:08;100694.31;;;10.27;100.00
10460;BME280;54412;51.206;6.888;2023-11-21T07:58:36;100689.59;;;10.33;100.00
10460;BME280;54412;51.206;6.888;2023-11-21T08:01:03;100697.34;;;10.36;100.00
10460;BME280;54412;51.206;6.888;2023-11-21T08:03:30;100709.00;;;10.32;100.00
10460;BME280;54412;51.206;6.888;2023-11-21T08:05:59;100715.03;;;10.34;100.00
10460;BME280;54412;51.206;6.888;2023-11-21T08:08:25;100723.44;;;10.24;100.00
10460;BME280;54412;51.206;6.888;2023-11-21T08:10:52;100733.63;;;10.31;100.00
10460;BME280;54412;51.206;6.888;2023-11-21T08:13:27;100732.72;;;10.32;100.00
10460;BME280;54412;51.206;6.888;2023-11-21T08:15:57;100735.47;;;10.29;100.00
10460;BME280;54412;51.206;6.888;2023-11-21T08:18:30;100743.25;;;10.32;100.00
10460;BME280;54412;51.206;6.888;2023-11-21T08:20:57;100754.66;;;10.33;100.00
10460;BME280;54412;51.206;6.888;2023-11-21T08:23:23;100760.69;;;10.35;100.00
10460;BME280;54412;51.206;6.888;2023-11-21T08:25:53;100765.63;;;10.42;100.00
10460;BME280;54412;51.206;6.888;2023-11-21T08:28:19;100769.25;;;10.40;100.00
10460;BME280;54412;51.206;6.888;2023-11-21T08:30:52;100776.44;;;10.36;100.00
10460;BME280;54412;51.206;6.888;2023-11-21T08:33:18;100769.47;;;10.54;100.00
10460;BME280;54412;51.206;6.888;2023-11-21T08:35:44;100768.28;;;10.60;100.00
10460;BME280;54412;51.206;6.888;2023-11-21T08:38:11;100778.13;;;10.56;100.00
10460;BME280;54412;51.206;6.888;2023-11-21T08:40:38;100781.16;;;10.48;100.00
10460;BME280;54412;51.206;6.888;2023-11-21T08:43:04;100786.56;;;10.45;100.00
10460;BME280;54412;51.206;6.888;2023-11-21T08:45:33;100784.44;;;10.53;100.00
10460;BME280;54412;51.206;6.888;2023-11-21T08:48:00;100789.72;;;10.53;100.00
10460;BME280;54412;51.206;6.888;2023-11-21T08:50:26;100795.53;;;10.60;100.00
10460;BME280;54412;51.206;6.888;2023-11-21T08:52:52;100788.84;;;10.72;100.00
10460;BME280;54412;51.206;6.888;2023-11-21T08:55:17;100788.41;;;10.62;100.00
10460;BME280;54412;51.206;6.888;2023-11-21T08:57:45;100787.63;;;10.60;100.00
10460;BME280;54412;51.206;6.888;2023-11-21T09:00:12;100792.97;;;10.59;100.00
10460;BME280;54412;51.206;6.888;2023-11-21T09:02:41;100792.72;;;10.82;100.00
10460;BME280;54412;51.206;6.888;2023-11-21T09:05:10;100805.22;;;10.78;100.00
10460;BME280;54412;51.206;6.888;2023-11-21T09:07:38;100796.44;;;10.78;100.00
10460;BME280;54412;51.206;6.888;2023-11-21T09:10:05;100797.22;;;10.80;100.00
10460;BME280;54412;51.206;6.888;2023-11-21T09:12:33;100809.22;;;10.68;100.00
10460;BME280;54412;51.206;6.888;2023-11-21T09:15:03;100805.28;;;10.77;100.00
10460;BME280;54412;51.206;6.888;2023-11-21T09:17:30;100811.28;;;10.80;100.00
10460;BME280;54412;51.206;6.888;2023-11-21T09:19:56;100813.91;;;10.80;100.00
10460;BME280;54412;51.206;6.888;2023-11-21T09:22:22;100822.34;;;10.88;100.00
10460;BME280;54412;51.206;6.888;2023-11-21T09:24:51;100821.38;;;10.89;100.00
10460;BME280;54412;51.206;6.888;2023-11-21T09:27:17;100824.88;;;10.90;100.00
10460;BME280;54412;51.206;6.888;2023-11-21T09:29:43;100824.88;;;10.90;100.00
10460;BME280;54412;51.206;6.888;2023-11-21T09:32:09;100819.72;;;11.05;100.00
10460;BME280;54412;51.206;6.888;2023-11-21T09:34:39;100828.97;;;11.14;100.00
10460;BME280;54412;51.206;6.888;2023-11-21T09:37:05;100831.16;;;11.23;100.00
10460;BME280;54412;51.206;6.888;2023-11-21T09:39:32;100843.19;;;11.11;100.00
10460;BME280;54412;51.206;6.888;2023-11-21T09:42:10;100846.72;;;11.10;100.00
10460;BME280;54412;51.206;6.888;2023-11-21T09:44:45;100848.09;;;11.36;100.00
10460;BME280;54412;51.206;6.888;2023-11-21T09:47:15;100857.16;;;11.13;100.00
10460;BME280;54412;51.206;6.888;2023-11-21T09:49:47;100855.81;;;11.05;100.00
10460;BME280;54412;51.206;6.888;2023-11-21T09:52:22;100857.19;;;11.30;100.00
10460;BME280;54412;51.206;6.888;2023-11-21T09:54:52;100856.59;;;11.07;100.00
10460;BME280;54412;51.206;6.888;2023-11-21T09:57:23;100864.66;;;11.04;100.00
10460;BME280;54412;51.206;6.888;2023-11-21T09:59:53;100861.78;;;11.08;100.00
10460;BME280;54412;51.206;6.888;2023-11-21T10:02:28;100857.59;;;11.04;100.00
10460;BME280;54412;51.206;6.888;2023-11-21T10:04:59;100855.06;;;11.20;100.00
10460;BME280;54412;51.206;6.888;2023-11-21T10:07:26;100865.53;;;11.04;100.00
10460;BME280;54412;51.206;6.888;2023-11-21T10:09:53;100865.38;;;11.07;100.00
10460;BME280;54412;51.206;6.888;2023-11-21T10:12:20;100869.94;;;11.04;100.00
10460;BME280;54412;51.206;6.888;2023-11-21T10:14:48;100869.31;;;10.99;100.00
10460;BME280;54412;51.206;6.888;2023-11-21T10:17:17;100861.66;;;11.11;100.00
10460;BME280;54412;51.206;6.888;2023-11-21T10:19:47;100866.28;;;11.06;100.00
10460;BME280;54412;51.206;6.888;2023-11-21T10:22:15;100873.00;;;11.13;100.00
10460;BME280;54412;51.206;6.888;2023-11-21T10:24:42;100867.41;;;11.19;100.00
10460;BME280;54412;51.206;6.888;2023-11-21T10:27:09;100867.94;;;11.09;100.00
10460;BME280;54412;51.206;6.888;2023-11-21T10:33:16;100856.97;;;11.35;100.00
10460;BME280;54412;51.206;6.888;2023-11-21T10:38:07;100867.00;;;11.45;100.00
10460;BME280;54412;51.206;6.888;2023-11-21T10:40:40;100872.41;;;11.42;100.00
10460;BME280;54412;51.206;6.888;2023-11-21T10:43:08;100877.69;;;11.78;100.00
10460;BME280;54412;51.206;6.888;2023-11-21T10:45:38;100879.38;;;11.26;100.00
10460;BME280;54412;51.206;6.888;2023-11-21T10:48:14;100878.91;;;11.18;100.00
10460;BME280;54412;51.206;6.888;2023-11-21T10:50:47;100873.28;;;11.43;100.00
10460;BME280;54412;51.206;6.888;2023-11-21T10:53:13;100886.09;;;11.50;100.00
10460;BME280;54412;51.206;6.888;2023-11-21T10:55:39;100881.13;;;11.44;100.00
10460;BME280;54412;51.206;6.888;2023-11-21T10:58:06;100886.13;;;11.15;100.00
10460;BME280;54412;51.206;6.888;2023-11-21T11:00:33;100896.75;;;11.13;100.00
10460;BME280;54412;51.206;6.888;2023-11-21T11:03:00;100895.53;;;11.20;100.00
10460;BME280;54412;51.206;6.888;2023-11-21T11:05:28;100892.19;;;11.17;100.00
10460;BME280;54412;51.206;6.888;2023-11-21T11:08:11;100896.69;;;11.15;100.00
10460;BME280;54412;51.206;6.888;2023-11-21T11:10:38;100900.66;;;11.23;100.00
10460;BME280;54412;51.206;6.888;2023-11-21T11:13:07;100906.63;;;11.10;100.00
10460;BME280;54412;51.206;6.888;2023-11-21T11:15:32;100905.66;;;11.29;100.00
10460;BME280;54412;51.206;6.888;2023-11-21T11:17:59;100914.50;;;11.28;100.00
10460;BME280;54412;51.206;6.888;2023-11-21T11:20:37;100903.72;;;11.50;100.00
10460;BME280;54412;51.206;6.888;2023-11-21T11:23:38;100911.31;;;11.22;100.00
10460;BME280;54412;51.206;6.888;2023-11-21T11:26:32;100909.88;;;11.15;100.00
10460;BME280;54412;51.206;6.888;2023-11-21T11:29:26;100906.72;;;11.25;100.00
10460;BME280;54412;51.206;6.888;2023-11-21T11:32:13;100915.25;;;11.49;100.00
10460;BME280;54412;51.206;6.888;2023-11-21T11:34:50;100915.72;;;11.21;100.00
10460;BME280;54412;51.206;6.888;2023-11-21T11:37:19;100918.16;;;11.26;100.00
10460;BME280;54412;51.206;6.888;2023-11-21T11:39:45;100914.50;;;11.28;100.00
10460;BME280;54412;51.206;6.888;2023-11-21T11:42:17;100916.72;;;11.54;100.00
10460;BME280;54412;51.206;6.888;2023-11-21T11:50:02;100909.09;;;11.31;100.00
10460;BME280;54412;51.206;6.888;2023-11-21T11:52:49;100911.38;;;11.56;100.00
10460;BME280;54412;51.206;6.888;2023-11-21T11:55:23;100920.47;;;11.68;100.00
10460;BME280;54412;51.206;6.888;2023-11-21T11:57:54;100912.06;;;11.59;100.00
10460;BME280;54412;51.206;6.888;2023-11-21T12:02:57;100903.66;;;11.51;100.00
10460;BME280;54412;51.206;6.888;2023-11-21T12:05:26;100919.91;;;11.61;100.00
10460;BME280;54412;51.206;6.888;2023-11-21T12:07:57;100916.31;;;11.45;100.00
10460;BME280;54412;51.206;6.888;2023-11-21T12:10:34;100927.06;;;11.59;100.00
10460;BME280;54412;51.206;6.888;2023-11-21T12:13:07;100926.16;;;11.60;100.00
10460;BME280;54412;51.206;6.888;2023-11-21T12:15:37;100931.63;;;11.55;100.00
10460;BME280;54412;51.206;6.888;2023-11-21T12:18:04;100927.75;;;11.81;100.00
10460;BME280;54412;51.206;6.888;2023-11-21T12:20:31;100948.81;;;11.64;100.00
10460;BME280;54412;51.206;6.888;2023-11-21T12:22:59;100943.50;;;11.66;100.00
10460;BME280;54412;51.206;6.888;2023-11-21T12:25:30;100945.47;;;11.60;100.00
10460;BME280;54412;51.206;6.888;2023-11-21T12:28:00;100937.09;;;11.52;100.00
10460;BME280;54412;51.206;6.888;2023-11-21T12:30:29;100936.28;;;11.50;100.00
10460;BME280;54412;51.206;6.888;2023-11-21T12:32:58;100935.06;;;11.57;100.00
10460;BME280;54412;51.206;6.888;2023-11-21T12:35:26;100941.34;;;11.55;100.00
10460;BME280;54412;51.206;6.888;2023-11-21T12:37:54;100941.41;;;11.53;100.00
10460;BME280;54412;51.206;6.888;2023-11-21T12:40:20;100942.91;;;11.59;100.00
10460;BME280;54412;51.206;6.888;2023-11-21T12:42:52;100949.09;;;11.77;100.00
10460;BME280;54412;51.206;6.888;2023-11-21T12:45:23;100947.97;;;11.64;100.00
10460;BME280;54412;51.206;6.888;2023-11-21T12:48:02;100942.81;;;11.79;100.00
10460;BME280;54412;51.206;6.888;2023-11-21T12:50:31;100949.03;;;11.78;100.00
10460;BME280;54412;51.206;6.888;2023-11-21T12:53:02;100947.81;;;11.85;100.00
10460;BME280;54412;51.206;6.888;2023-11-21T12:55:33;100944.53;;;11.97;100.00
10460;BME280;54412;51.206;6.888;2023-11-21T12:58:04;100946.66;;;11.91;100.00
10460;BME280;54412;51.206;6.888;2023-11-21T13:00:45;100951.50;;;11.98;100.00